Time;durP1;ratioP1;P1;durP2;ratioP2;P2;SDS_P1;SDS_P2;PMS_P1;PMS_P2;Temp;Humidity;BMP_temperature;BMP_pressure;BME280_temperature;BME280_humidity;BME280_pressure;Samples;Min_cycle;Max_cycle;Signal;HPM_P1;HPM_P2
2023/01/15 00:01:05;;;;;;;9.93;2.15;;;;;;;4.85;100.00;99918.63;5072202;28;20024;-77
2023/01/15 00:03:31;;;;;;;9.88;2.05;;;;;;;4.84;100.00;99916.03;5063610;28;20388;-77
2023/01/15 00:06:01;;;;;;;11.80;2.28;;;;;;;4.91;100.00;99910.78;5071396;28;20029;-77
2023/01/15 00:08:26;;;;;;;9.38;2.97;;;;;;;4.88;100.00;99910.81;5071803;28;20008;-77
2023/01/15 00:10:51;;;;;;;9.48;2.78;;;;;;;4.96;100.00;99933.09;5072103;28;20021;-77
2023/01/15 00:13:16;;;;;;;14.90;2.75;;;;;;;5.00;100.00;99924.41;5070898;28;20363;-77
2023/01/15 00:15:42;;;;;;;12.02;2.70;;;;;;;4.99;100.00;99913.25;5071953;28;20154;-77
2023/01/15 00:18:07;;;;;;;14.05;3.10;;;;;;;5.01;100.00;99918.41;5071855;28;20052;-77
2023/01/15 00:20:33;;;;;;;15.70;3.50;;;;;;;4.98;100.00;99910.69;5071218;28;20173;-77
2023/01/15 00:22:58;;;;;;;11.85;3.15;;;;;;;4.93;100.00;99918.50;5071923;28;20017;-77
2023/01/15 00:28:07;;;;;;;12.65;2.80;;;;;;;4.88;100.00;99897.06;5071057;28;20055;-77
2023/01/15 00:30:32;;;;;;;9.50;3.38;;;;;;;4.90;100.00;99908.22;5071773;28;20029;-77
2023/01/15 00:32:58;;;;;;;11.80;2.42;;;;;;;4.78;100.00;99900.66;5071098;28;20438;-77
2023/01/15 00:35:24;;;;;;;12.65;2.45;;;;;;;4.75;100.00;99893.81;5071548;28;20016;-77
2023/01/15 00:37:50;;;;;;;7.38;2.10;;;;;;;4.69;100.00;99901.66;5071817;28;20482;-77
2023/01/15 00:40:18;;;;;;;11.10;2.58;;;;;;;4.70;100.00;99908.50;5070381;28;20029;-77
2023/01/15 00:42:44;;;;;;;13.75;2.03;;;;;;;4.61;100.00;99914.69;5072010;28;20112;-77
2023/01/15 00:45:11;;;;;;;8.13;1.90;;;;;;;4.59;100.00;99921.56;5071584;28;20051;-77
2023/01/15 00:47:38;;;;;;;8.15;1.90;;;;;;;4.37;100.00;99897.78;5076280;28;20020;-77
2023/01/15 00:50:05;;;;;;;12.75;2.05;;;;;;;4.55;100.00;99937.13;5080160;28;20056;-77
2023/01/15 00:52:30;;;;;;;13.73;2.50;;;;;;;4.39;100.00;99905.50;5071056;28;20028;-77
2023/01/15 00:54:56;;;;;;;10.95;2.00;;;;;;;4.49;100.00;99943.22;5070854;28;20083;-77
2023/01/15 00:57:21;;;;;;;7.82;2.08;;;;;;;4.44;100.00;99939.84;5071356;28;20094;-77
2023/01/15 00:59:46;;;;;;;6.22;1.90;;;;;;;4.41;100.00;99932.13;5072547;28;20137;-77
2023/01/15 01:02:12;;;;;;;11.23;2.22;;;;;;;4.37;100.00;99931.31;5067347;28;20096;-77
2023/01/15 01:04:37;;;;;;;8.27;2.05;;;;;;;4.40;100.00;99939.03;5074824;28;20111;-77
2023/01/15 01:07:03;;;;;;;10.25;2.10;;;;;;;4.30;100.00;99932.28;5075150;28;20051;-77
2023/01/15 01:09:28;;;;;;;11.20;2.25;;;;;;;4.34;100.00;99944.25;5074338;28;20039;-77
2023/01/15 01:11:53;;;;;;;12.82;2.63;;;;;;;4.32;100.00;99935.69;5075076;28;20464;-77
2023/01/15 01:14:19;;;;;;;10.45;1.90;;;;;;;4.16;100.00;99911.81;5076126;28;20032;-77
2023/01/15 01:16:44;;;;;;;14.20;1.90;;;;;;;4.35;100.00;99946.00;5087480;28;20020;-77
2023/01/15 01:19:20;;;;;;;15.32;2.40;;;;;;;4.35;100.00;99952.84;5074955;28;20017;-77
2023/01/15 01:21:47;;;;;;;8.65;2.17;;;;;;;4.28;100.00;99935.75;5075221;28;20025;-77
2023/01/15 01:24:15;;;;;;;9.98;2.28;;;;;;;4.33;100.00;99952.88;5074052;28;20016;-77
2023/01/15 01:26:42;;;;;;;10.90;2.25;;;;;;;4.33;100.00;99950.31;5075043;28;20023;-77
2023/01/15 01:29:11;;;;;;;8.75;1.75;;;;;;;4.26;100.00;99927.19;5073922;28;20107;-77
2023/01/15 01:31:36;;;;;;;8.63;1.77;;;;;;;4.25;100.00;99931.50;5074558;28;20035;-77
2023/01/15 01:34:02;;;;;;;11.45;1.95;;;;;;;4.28;100.00;99928.84;5073475;28;20013;-77
2023/01/15 01:36:30;;;;;;;8.85;2.13;;;;;;;4.43;100.00;99943.31;5073251;28;20841;-77
2023/01/15 01:38:56;;;;;;;13.10;1.85;;;;;;;4.32;100.00;99920.22;5075026;28;20095;-77
2023/01/15 01:41:21;;;;;;;8.82;1.85;;;;;;;4.46;100.00;99943.25;5074222;28;20154;-77
2023/01/15 01:43:57;;;;;;;11.30;2.53;;;;;;;4.52;100.00;99944.91;5073997;28;20095;-77
2023/01/15 01:46:24;;;;;;;8.07;2.30;;;;;;;4.54;100.00;99945.72;5074232;28;20017;-77
2023/01/15 01:48:52;;;;;;;14.63;2.25;;;;;;;4.53;100.00;99938.88;5074709;28;20025;-77
2023/01/15 01:51:24;;;;;;;7.70;1.70;;;;;;;4.33;100.00;99906.44;5073099;28;20020;-77
2023/01/15 01:53:49;;;;;;;13.90;2.78;;;;;;;4.44;100.00;99911.44;5074152;28;20079;-77
2023/01/15 01:56:17;;;;;;;7.72;1.70;;;;;;;4.42;100.00;99915.78;5074150;28;20044;-77
2023/01/15 01:58:46;;;;;;;6.38;1.60;;;;;;;4.40;100.00;99920.97;5073450;28;20024;-77
2023/01/15 02:01:12;;;;;;;12.90;1.80;;;;;;;4.47;100.00;99927.75;5073951;28;20032;-77
2023/01/15 02:03:38;;;;;;;13.38;1.70;;;;;;;4.58;100.00;99937.94;5064753;28;20020;-77
2023/01/15 02:06:08;;;;;;;11.57;1.63;;;;;;;4.57;100.00;99927.63;5073210;28;20379;-77
2023/01/15 02:08:33;;;;;;;14.40;2.15;;;;;;;4.58;100.00;99942.25;5080975;28;20455;-77
2023/01/15 02:11:00;;;;;;;9.55;2.05;;;;;;;4.45;100.00;99934.66;5081850;28;20027;-77
2023/01/15 02:13:34;;;;;;;10.32;1.85;;;;;;;4.52;100.00;99942.34;5072976;28;20019;-77
2023/01/15 02:16:07;;;;;;;9.20;1.80;;;;;;;4.54;100.00;99950.91;5074110;28;20020;-77
2023/01/15 02:18:57;;;;;;;8.57;1.75;;;;;;;4.54;100.00;99961.22;5073152;28;20028;-77
2023/01/15 02:21:25;;;;;;;13.85;1.95;;;;;;;4.54;100.00;99953.47;5073549;28;20123;-77
2023/01/15 02:23:58;;;;;;;10.48;1.88;;;;;;;4.51;100.00;99941.47;5074090;28;20024;-77
2023/01/15 02:26:54;;;;;;;12.45;1.67;;;;;;;4.52;100.00;99952.66;5072601;28;20089;-77
2023/01/15 02:29:31;;;;;;;13.70;1.80;;;;;;;4.53;100.00;99941.47;5073460;28;20921;-78
2023/01/15 02:32:00;;;;;;;10.05;1.65;;;;;;;4.50;100.00;99933.75;5073531;28;20032;-77
2023/01/15 02:34:31;;;;;;;9.93;1.50;;;;;;;4.51;100.00;99936.28;5072829;28;20025;-77
2023/01/15 02:37:03;;;;;;;8.98;1.65;;;;;;;4.49;100.00;99926.88;5073346;28;20025;-77
2023/01/15 02:39:31;;;;;;;11.95;2.03;;;;;;;4.46;100.00;99935.53;5072594;28;20086;-77
2023/01/15 02:42:01;;;;;;;11.05;1.65;;;;;;;4.38;100.00;99919.25;5073332;28;20035;-77
2023/01/15 02:44:29;;;;;;;7.05;1.48;;;;;;;4.40;100.00;99936.44;5073178;28;20350;-77
2023/01/15 02:46:58;;;;;;;11.73;1.88;;;;;;;4.35;100.00;99935.66;5072929;28;20104;-77
2023/01/15 02:49:23;;;;;;;12.85;1.75;;;;;;;4.32;100.00;99917.63;5072621;28;20028;-77
2023/01/15 02:52:03;;;;;;;6.15;2.03;;;;;;;4.35;100.00;99914.13;5072988;28;20047;-77
2023/01/15 02:54:36;;;;;;;13.45;1.70;;;;;;;4.29;100.00;99904.78;5071988;28;20044;-77
2023/01/15 02:57:03;;;;;;;8.82;1.90;;;;;;;4.28;100.00;99909.94;5073345;28;20375;-77
2023/01/15 02:59:36;;;;;;;13.57;2.15;;;;;;;4.30;100.00;99900.47;5072641;28;20353;-77
2023/01/15 03:02:07;;;;;;;10.70;2.10;;;;;;;4.33;100.00;99911.59;5068767;28;20070;-77
2023/01/15 03:05:04;;;;;;;8.65;1.70;;;;;;;4.20;100.00;99894.56;5071245;28;20021;-77
2023/01/15 03:07:32;;;;;;;10.25;1.65;;;;;;;4.28;100.00;99915.94;5072808;28;20056;-77
2023/01/15 03:09:58;;;;;;;9.70;1.67;;;;;;;4.22;100.00;99903.16;5079868;28;20060;-77
2023/01/15 03:12:28;;;;;;;16.45;1.92;;;;;;;4.38;100.00;99927.88;5079846;28;20048;-77
2023/01/15 03:15:10;;;;;;;7.45;1.83;;;;;;;4.33;100.00;99918.50;5072167;28;20822;-77
2023/01/15 03:17:44;;;;;;;9.75;1.90;;;;;;;4.33;100.00;99921.91;5073067;28;20025;-77
2023/01/15 03:20:30;;;;;;;8.88;2.22;;;;;;;4.34;100.00;99928.78;5072477;28;20020;-77
2023/01/15 03:23:03;;;;;;;6.60;2.05;;;;;;;4.36;100.00;99927.03;5071623;28;20107;-77
2023/01/15 03:25:41;;;;;;;12.55;2.15;;;;;;;4.35;100.00;99917.59;5081086;28;20031;-77
2023/01/15 03:28:10;;;;;;;12.00;2.42;;;;;;;4.37;100.00;99912.41;5076191;28;20371;-77
2023/01/15 03:30:36;;;;;;;13.95;2.20;;;;;;;4.39;100.00;99919.25;5071743;28;20027;-77
2023/01/15 03:33:01;;;;;;;9.00;2.22;;;;;;;4.34;100.00;99910.72;5072311;28;20037;-77
2023/01/15 03:36:15;;;;;;;9.15;1.98;;;;;;;4.35;100.00;99917.59;5072491;28;20033;-77
2023/01/15 03:38:40;;;;;;;13.35;1.58;;;;;;;4.32;100.00;99919.38;5048494;28;20555;-77
2023/01/15 03:41:14;;;;;;;8.90;1.70;;;;;;;4.38;100.00;99927.88;5072278;28;20103;-77
2023/01/15 03:43:51;;;;;;;;;;;;;;;4.35;100.00;99917.59;5071882;28;20464;-77
2023/01/15 03:46:32;;;;;;;7.30;1.50;;;;;;;4.31;100.00;99904.75;5072256;28;20271;-77
2023/01/15 03:49:25;;;;;;;15.98;2.00;;;;;;;4.40;100.00;99933.00;5070290;28;20025;-77
2023/01/15 03:52:06;;;;;;;12.15;1.90;;;;;;;4.38;100.00;99920.16;5063127;28;20064;-76
2023/01/15 03:54:51;;;;;;;14.05;1.85;;;;;;;4.39;100.00;99927.00;5071839;28;20128;-77
2023/01/15 03:57:42;;;;;;;13.57;2.08;;;;;;;4.38;100.00;99920.16;5070905;28;20040;-77
2023/01/15 04:00:13;;;;;;;10.52;2.10;;;;;;;4.41;100.00;99927.84;5072171;28;20032;-77
2023/01/15 04:02:40;;;;;;;13.48;1.75;;;;;;;4.40;100.00;99920.97;5066843;28;20144;-77
2023/01/15 04:05:06;;;;;;;10.32;1.90;;;;;;;4.41;100.00;99930.44;5071603;28;20016;-77
2023/01/15 04:07:31;;;;;;;6.18;1.60;;;;;;;4.31;100.00;99897.84;5071898;28;20035;-77
2023/01/15 04:09:57;;;;;;;8.88;1.73;;;;;;;4.35;100.00;99907.28;5072057;28;20421;-77
2023/01/15 04:12:22;;;;;;;11.68;1.88;;;;;;;4.36;100.00;99911.56;5071034;28;20035;-77
2023/01/15 04:14:47;;;;;;;10.43;1.52;;;;;;;4.34;100.00;99909.88;5071886;28;20032;-77
2023/01/15 04:17:13;;;;;;;9.40;1.70;;;;;;;4.24;100.00;99914.28;5071835;28;20464;-77
2023/01/15 04:19:38;;;;;;;13.27;2.25;;;;;;;4.27;100.00;99926.31;5071279;28;20024;-77
2023/01/15 04:22:04;;;;;;;10.77;1.80;;;;;;;4.26;100.00;99933.19;5072177;28;20056;-77
2023/01/15 04:24:29;;;;;;;10.75;1.92;;;;;;;4.25;100.00;99928.03;5071640;28;20051;-77
2023/01/15 04:26:54;;;;;;;7.97;1.70;;;;;;;4.19;100.00;99918.66;5071302;28;20033;-77
2023/01/15 04:29:20;;;;;;;10.00;1.50;;;;;;;4.22;100.00;99906.59;5071653;28;20456;-77
2023/01/15 04:31:45;;;;;;;13.48;1.80;;;;;;;4.09;100.00;99905.03;5072127;28;20020;-77
2023/01/15 04:34:11;;;;;;;11.48;1.83;;;;;;;4.16;100.00;99921.28;5071056;28;20364;-77
2023/01/15 04:36:36;;;;;;;8.77;1.55;;;;;;;4.13;100.00;99918.72;5075623;28;20032;-77
2023/01/15 04:39:03;;;;;;;13.27;1.95;;;;;;;4.09;100.00;99925.66;5075113;28;20031;-77
2023/01/15 04:44:12;;;;;;;10.43;1.60;;;;;;;4.05;100.00;99917.97;5075300;28;20498;-77
2023/01/15 04:46:40;;;;;;;12.38;2.20;;;;;;;4.09;100.00;99933.41;5075102;28;20103;-76
2023/01/15 04:49:09;;;;;;;13.48;1.95;;;;;;;4.21;100.00;99937.53;5075610;28;20012;-77
2023/01/15 04:51:34;;;;;;;9.70;1.63;;;;;;;4.19;100.00;99932.41;5075495;28;20020;-77
2023/01/15 04:54:04;;;;;;;6.55;1.58;;;;;;;4.18;100.00;99925.53;5071312;28;20052;-77
2023/01/15 04:56:29;;;;;;;10.43;2.13;;;;;;;4.20;100.00;99933.25;5075387;28;20103;-77
2023/01/15 04:58:55;;;;;;;9.77;1.90;;;;;;;4.20;100.00;99946.16;5075377;28;20501;-77
2023/01/15 05:01:20;;;;;;;11.45;1.90;;;;;;;4.18;100.00;99935.00;5074122;28;20020;-77
2023/01/15 05:03:46;;;;;;;11.52;1.88;;;;;;;4.17;100.00;99934.16;5070685;28;20128;-77
2023/01/15 05:06:13;;;;;;;6.68;1.63;;;;;;;4.16;100.00;99924.72;5061021;28;20025;-77
2023/01/15 05:08:39;;;;;;;14.60;1.90;;;;;;;4.14;100.00;99936.75;5074662;28;20074;-77
2023/01/15 05:11:05;;;;;;;6.85;1.40;;;;;;;4.12;100.00;99929.91;5075197;28;20029;-77
2023/01/15 05:13:32;;;;;;;10.20;2.17;;;;;;;4.11;100.00;99941.94;5075064;28;20028;-77
2023/01/15 05:16:19;;;;;;;11.63;2.00;;;;;;;4.10;100.00;99941.97;5056308;28;20490;-77
2023/01/15 05:18:47;;;;;;;10.75;2.10;;;;;;;4.14;100.00;99938.50;5075035;28;20036;-77
2023/01/15 05:21:21;;;;;;;9.80;2.20;;;;;;;4.15;100.00;99935.03;5073955;28;20104;-77
2023/01/15 05:23:48;;;;;;;12.27;2.10;;;;;;;4.17;100.00;99921.25;5075218;28;20120;-77
2023/01/15 05:26:14;;;;;;;11.77;1.95;;;;;;;4.17;100.00;99920.41;5074372;28;20457;-77
2023/01/15 05:28:40;;;;;;;11.95;1.77;;;;;;;4.25;100.00;99925.47;5074343;28;20024;-77
2023/01/15 05:31:07;;;;;;;9.98;1.88;;;;;;;4.22;100.00;99931.53;5074689;28;20482;-77
2023/01/15 05:33:33;;;;;;;15.10;2.40;;;;;;;4.27;100.00;99922.00;5074621;28;20027;-77
2023/01/15 05:36:07;;;;;;;13.75;1.75;;;;;;;4.28;100.00;99920.25;5073978;28;20025;-77
2023/01/15 05:38:33;;;;;;;13.50;2.22;;;;;;;4.17;100.00;99890.28;5074600;28;20021;-77
2023/01/15 05:40:58;;;;;;;14.30;1.95;;;;;;;4.25;100.00;99910.84;5074817;28;20033;-77
2023/01/15 05:43:24;;;;;;;9.52;1.88;;;;;;;4.26;100.00;99909.13;5073443;28;20170;-77
2023/01/15 05:45:49;;;;;;;10.77;2.13;;;;;;;4.25;100.00;99912.56;5073988;28;20100;-76
2023/01/15 05:48:14;;;;;;;13.00;2.08;;;;;;;4.23;100.00;99905.69;5074104;28;20024;-77
2023/01/15 05:50:39;;;;;;;16.25;2.03;;;;;;;4.26;100.00;99912.56;5073756;28;20028;-77
2023/01/15 05:53:06;;;;;;;9.70;2.08;;;;;;;4.25;100.00;99903.13;5074590;28;20107;-77
2023/01/15 05:55:31;;;;;;;10.10;1.60;;;;;;;4.22;100.00;99906.59;5074454;28;20107;-77
2023/01/15 05:57:57;;;;;;;9.43;1.90;;;;;;;4.23;100.00;99897.97;5073724;28;20539;-77
2023/01/15 06:00:22;;;;;;;12.65;2.08;;;;;;;4.33;100.00;99915.91;5062263;28;20036;-77
2023/01/15 06:02:49;;;;;;;12.30;1.98;;;;;;;4.36;100.00;99908.13;5068580;28;20683;-77
2023/01/15 06:05:18;;;;;;;14.10;2.00;;;;;;;4.33;100.00;99903.84;5073403;28;20047;-77
2023/01/15 06:07:44;;;;;;;17.55;2.42;;;;;;;4.28;100.00;99907.34;5074249;28;20074;-77
2023/01/15 06:10:09;;;;;;;10.10;1.95;;;;;;;4.29;100.00;99891.88;5073965;28;20028;-77
2023/01/15 06:12:35;;;;;;;8.50;2.25;;;;;;;4.46;100.00;99920.88;5073397;28;20016;-77
2023/01/15 06:15:00;;;;;;;11.48;2.30;;;;;;;4.43;100.00;99902.00;5074279;28;20085;-77
2023/01/15 06:17:25;;;;;;;11.57;2.20;;;;;;;4.53;100.00;99925.97;5055469;28;20380;-77
2023/01/15 06:19:50;;;;;;;13.10;2.20;;;;;;;4.40;100.00;99926.13;5073273;28;20422;-77
2023/01/15 06:22:17;;;;;;;8.68;1.90;;;;;;;4.41;100.00;99938.19;5073680;28;20104;-77
2023/01/15 06:24:42;;;;;;;11.45;2.13;;;;;;;4.35;100.00;99927.03;5072617;28;20036;-77
2023/01/15 06:27:07;;;;;;;11.48;2.20;;;;;;;4.27;100.00;99931.47;5073866;28;20238;-77
2023/01/15 06:29:34;;;;;;;10.63;1.50;;;;;;;4.33;100.00;99927.06;5073400;28;20115;-77
2023/01/15 06:31:59;;;;;;;10.65;2.22;;;;;;;4.29;100.00;99933.16;5072873;28;20361;-77
2023/01/15 06:34:24;;;;;;;16.15;1.92;;;;;;;4.25;100.00;99944.41;5073544;28;20104;-77
2023/01/15 06:36:50;;;;;;;12.57;1.88;;;;;;;4.17;100.00;99948.78;5073797;28;20055;-77
2023/01/15 06:39:15;;;;;;;8.75;1.88;;;;;;;4.07;100.00;99939.44;5082909;28;20024;-77
2023/01/15 06:47:20;;;;;;;;;;;;;;;3.95;100.00;99925.78;5073042;28;20420;-77
2023/01/15 06:49:47;;;;;;;8.10;1.40;;;;;;;3.98;100.00;99930.91;5073250;28;20311;-77
2023/01/15 06:52:12;;;;;;;8.48;1.35;;;;;;;3.93;100.00;99940.44;5073058;28;20055;-77
2023/01/15 06:54:38;;;;;;;13.07;1.77;;;;;;;3.87;100.00;99937.94;5072264;28;20068;-76
2023/01/15 06:57:03;;;;;;;11.48;1.58;;;;;;;3.81;100.00;99940.56;5072754;28;20031;-76
2023/01/15 06:59:28;;;;;;;12.98;2.40;;;;;;;3.86;100.00;99943.97;5086936;28;20099;-76
2023/01/15 07:01:54;;;;;;;13.75;1.92;;;;;;;3.81;100.00;99944.88;5072544;28;20024;-76
2023/01/15 07:04:19;;;;;;;12.55;1.65;;;;;;;3.81;100.00;99944.88;5069505;28;20037;-76
2023/01/15 07:06:45;;;;;;;4.85;1.50;;;;;;;3.68;100.00;99942.41;5072135;28;20017;-76
2023/01/15 07:09:11;;;;;;;11.60;1.98;;;;;;;3.78;100.00;99953.50;5072589;28;20036;-76
2023/01/15 07:11:48;;;;;;;6.95;1.60;;;;;;;3.71;100.00;99946.69;5073164;28;20016;-76
2023/01/15 07:14:15;;;;;;;9.70;2.47;;;;;;;3.59;100.00;99942.50;5071929;28;20050;-77
2023/01/15 07:16:40;;;;;;;10.25;1.60;;;;;;;3.60;100.00;99948.53;5073156;28;20012;-76
2023/01/15 07:19:05;;;;;;;12.15;1.60;;;;;;;3.50;100.00;99956.34;5072752;28;20101;-77
2023/01/15 07:21:31;;;;;;;8.05;2.10;;;;;;;3.52;100.00;99962.31;5071564;28;20016;-77
2023/01/15 07:24:00;;;;;;;13.80;2.00;;;;;;;3.67;100.00;99970.78;5072978;28;20111;-76
2023/01/15 07:26:26;;;;;;;8.43;1.75;;;;;;;3.63;100.00;99975.13;5072121;28;20108;-76
2023/01/15 07:28:53;;;;;;;6.30;1.75;;;;;;;3.71;100.00;99972.47;5072139;28;20115;-76
2023/01/15 07:31:19;;;;;;;8.13;1.98;;;;;;;3.81;100.00;99984.41;5072263;28;20021;-76
2023/01/15 07:33:44;;;;;;;11.25;1.45;;;;;;;3.91;100.00;99977.44;5072743;28;20082;-76
2023/01/15 07:36:09;;;;;;;9.63;2.10;;;;;;;3.95;100.00;99979.94;5071390;28;20025;-76
2023/01/15 07:38:35;;;;;;;9.98;1.77;;;;;;;3.99;100.00;99986.81;5072556;28;20070;-76
2023/01/15 07:51:57;;;;;;;9.75;1.60;;;;;;;4.18;100.00;100005.50;5072654;28;20090;-76
2023/01/15 07:54:22;;;;;;;8.82;1.70;;;;;;;4.14;100.00;99997.81;5071664;28;20396;-76
2023/01/15 07:56:50;;;;;;;9.93;1.98;;;;;;;4.18;100.00;100000.34;5071533;28;20108;-76
2023/01/15 07:59:15;;;;;;;6.80;1.73;;;;;;;4.15;100.00;100012.41;5072002;28;20073;-76
2023/01/15 08:01:40;;;;;;;8.75;1.83;;;;;;;4.13;100.00;100009.88;5072395;28;20024;-77
2023/01/15 08:04:06;;;;;;;7.93;2.03;;;;;;;4.06;100.00;100013.38;5069002;28;20349;-77
2023/01/15 08:06:31;;;;;;;12.75;2.40;;;;;;;3.94;100.00;100001.47;5072129;28;20017;-76
2023/01/15 08:08:56;;;;;;;7.90;1.60;;;;;;;3.89;100.00;100007.53;5072027;28;20457;-77
2023/01/15 08:16:49;;;;;;;9.38;1.70;;;;;;;3.70;100.00;100009.44;5059559;28;20089;-76
2023/01/15 08:19:14;;;;;;;7.88;2.15;;;;;;;3.66;100.00;100010.31;5071115;28;20017;-76
2023/01/15 08:21:40;;;;;;;8.32;1.35;;;;;;;3.59;100.00;99996.63;5072017;28;20376;-76
2023/01/15 08:24:05;;;;;;;9.32;1.58;;;;;;;3.52;100.00;100003.53;5071230;28;20021;-76
2023/01/15 08:26:30;;;;;;;5.95;1.63;;;;;;;3.55;100.00;100005.25;5071774;28;20486;-76
2023/01/15 08:28:56;;;;;;;6.40;1.30;;;;;;;3.57;100.00;100020.72;5071916;28;20040;-76
2023/01/15 08:31:21;;;;;;;12.07;1.60;;;;;;;3.45;100.00;100006.19;5070931;28;20467;-76
2023/01/15 08:33:47;;;;;;;7.63;1.60;;;;;;;3.47;100.00;100000.16;5072083;28;20503;-76
2023/01/15 08:36:12;;;;;;;6.90;1.40;;;;;;;3.29;100.00;99965.09;5071600;28;20032;-76
2023/01/15 08:38:37;;;;;;;7.38;1.25;;;;;;;3.47;100.00;100005.31;5070996;28;20086;-76
2023/01/15 08:41:02;;;;;;;5.80;1.48;;;;;;;3.48;100.00;100003.59;5071832;28;20021;-77
2023/01/15 08:43:31;;;;;;;8.82;1.58;;;;;;;3.57;100.00;100020.72;5071487;28;20464;-76
2023/01/15 08:45:58;;;;;;;6.28;1.30;;;;;;;3.59;100.00;100016.38;5071194;28;20021;-76
2023/01/15 08:48:24;;;;;;;5.90;1.25;;;;;;;3.59;100.00;100013.81;5071602;28;20415;-76
2023/01/15 08:50:49;;;;;;;8.52;1.30;;;;;;;3.52;100.00;100000.13;5071587;28;20103;-77
2023/01/15 08:53:15;;;;;;;6.72;2.05;;;;;;;3.55;100.00;99999.25;5070508;28;20124;-76
2023/01/15 08:55:41;;;;;;;12.95;1.45;;;;;;;3.49;100.00;99992.41;5071584;28;20387;-77
2023/01/15 08:58:07;;;;;;;11.20;1.80;;;;;;;3.63;100.00;100002.59;5071657;28;20130;-77
2023/01/15 09:00:33;;;;;;;13.75;1.40;;;;;;;3.67;100.00;100001.72;5084170;28;20470;-76
2023/01/15 09:02:58;;;;;;;10.27;1.88;;;;;;;3.57;100.00;99987.22;5070957;28;20048;-76
2023/01/15 09:05:24;;;;;;;5.97;1.38;;;;;;;3.70;100.00;100006.84;5082924;28;20031;-76
2023/01/15 09:07:49;;;;;;;6.13;1.45;;;;;;;3.75;100.00;100000.78;5073362;28;20020;-76
2023/01/15 09:10:15;;;;;;;7.70;1.45;;;;;;;3.70;100.00;99975.94;5071112;28;20024;-76
2023/01/15 09:12:42;;;;;;;10.27;1.90;;;;;;;3.87;100.00;99980.91;5053263;28;20040;-76
2023/01/15 09:15:08;;;;;;;14.30;2.00;;;;;;;3.89;100.00;99972.31;5070847;28;20017;-76
2023/01/15 09:17:38;;;;;;;9.45;1.50;;;;;;;3.95;100.00;99979.94;5071695;28;20036;-76
2023/01/15 09:20:04;;;;;;;10.05;1.63;;;;;;;3.99;100.00;99976.50;5071558;28;20020;-76
2023/01/15 09:22:29;;;;;;;14.05;2.22;;;;;;;4.05;100.00;99991.03;5073651;28;20024;-76
2023/01/15 09:24:57;;;;;;;7.50;1.63;;;;;;;4.16;100.00;99991.78;5074685;28;20020;-77
2023/01/15 09:27:27;;;;;;;14.32;2.20;;;;;;;3.95;100.00;99953.31;5074014;28;20082;-76
2023/01/15 09:29:53;;;;;;;8.20;1.65;;;;;;;4.33;100.00;99994.16;5074851;28;20060;-76
2023/01/15 09:32:19;;;;;;;9.57;2.75;;;;;;;4.28;100.00;99964.97;5074190;28;20039;-76
2023/01/15 09:34:44;;;;;;;8.88;1.60;;;;;;;4.51;100.00;99994.81;5074151;28;20020;-77
2023/01/15 09:37:09;;;;;;;15.27;2.05;;;;;;;4.66;100.00;99998.06;5074583;28;20482;-76
2023/01/15 09:39:36;;;;;;;8.40;1.70;;;;;;;4.82;100.00;99997.88;5074692;28;20455;-76
2023/01/15 09:42:23;;;;;;;5.68;1.73;;;;;;;5.00;100.00;99991.59;5073623;28;20479;-76
2023/01/15 09:45:21;;;;;;;10.25;1.60;;;;;;;5.05;100.00;99992.38;5074908;28;20392;-76
2023/01/15 09:48:35;;;;;;;9.75;1.60;;;;;;;4.97;100.00;100005.41;5074717;28;20110;-77
2023/01/15 09:51:22;;;;;;;9.63;1.85;;;;;;;4.85;100.00;100001.25;5049746;28;20037;-76
2023/01/15 09:54:20;;;;;;;10.05;2.17;;;;;;;4.77;100.00;100005.66;5088526;28;20491;-76
2023/01/15 09:56:47;;;;;;;9.18;1.88;;;;;;;4.70;100.00;100004.88;5064126;28;20032;-76
2023/01/15 09:59:22;;;;;;;11.10;2.00;;;;;;;4.74;100.00;100021.22;5071747;28;20033;-77
2023/01/15 10:01:49;;;;;;;7.43;1.55;;;;;;;4.74;100.00;100005.72;5064209;28;20070;-77
2023/01/15 10:04:30;;;;;;;7.13;1.92;;;;;;;4.84;100.00;100022.81;5072822;28;20016;-76
2023/01/15 10:07:05;;;;;;;9.75;2.05;;;;;;;4.82;100.00;100013.38;5074454;28;20116;-76
2023/01/15 10:09:36;;;;;;;12.80;1.63;;;;;;;4.83;100.00;100009.91;5073375;28;20421;-77
2023/01/15 10:15:22;;;;;;;6.00;1.52;;;;;;;4.92;100.00;100028.72;5073954;28;20074;-76
2023/01/15 10:17:52;;;;;;;11.93;2.05;;;;;;;4.90;100.00;100019.28;5037121;28;20159;-76
2023/01/15 10:20:39;;;;;;;11.00;1.80;;;;;;;4.86;100.00;100035.69;5073792;28;20070;-77
2023/01/15 10:23:19;;;;;;;9.30;1.42;;;;;;;4.84;100.00;100025.41;5073715;28;20028;-76
2023/01/15 10:25:51;;;;;;;7.68;1.55;;;;;;;4.91;100.00;100037.34;5073351;28;20020;-76
2023/01/15 10:28:28;;;;;;;14.68;1.75;;;;;;;4.89;100.00;100015.84;5055695;28;20031;-76
2023/01/15 10:30:56;;;;;;;9.52;1.80;;;;;;;4.94;100.00;100026.13;5055058;28;20033;-76
2023/01/15 10:33:58;;;;;;;7.65;1.88;;;;;;;4.97;100.00;100018.34;5075861;28;20463;-76
2023/01/15 10:36:41;;;;;;;9.32;1.45;;;;;;;5.01;100.00;100019.16;5078594;28;20545;-76
2023/01/15 10:39:15;;;;;;;10.23;2.25;;;;;;;5.11;100.00;100029.31;5073010;28;20028;-77
2023/01/15 10:41:56;;;;;;;6.60;1.85;;;;;;;5.14;100.00;100016.34;5073709;28;20029;-76
2023/01/15 10:44:43;;;;;;;9.43;1.92;;;;;;;5.24;100.00;100037.75;5072982;28;20031;-76
2023/01/15 10:47:16;;;;;;;7.05;1.60;;;;;;;5.31;100.00;100033.34;5074136;28;20032;-76
2023/01/15 10:49:43;;;;;;;10.32;1.55;;;;;;;5.40;100.00;100023.72;5085395;28;20440;-76
2023/01/15 10:52:30;;;;;;;5.93;1.40;;;;;;;5.56;100.00;100018.31;5072548;28;20056;-77
2023/01/15 10:55:15;;;;;;;5.75;1.58;;;;;;;5.57;100.00;100020.88;5073045;28;20430;-77
2023/01/15 10:57:53;;;;;;;8.52;1.73;;;;;;;5.44;100.00;100011.59;5073175;28;20039;-77
2023/01/15 11:00:21;;;;;;;8.02;1.50;;;;;;;5.48;100.00;99999.47;5071913;28;20407;-76
2023/01/15 11:02:56;;;;;;;10.80;1.30;;;;;;;5.52;100.00;100011.47;5070098;28;20098;-77
2023/01/15 11:05:21;;;;;;;6.57;1.33;;;;;;;5.49;100.00;100007.19;5074995;28;20032;-76
2023/01/15 11:07:49;;;;;;;6.35;1.70;;;;;;;5.37;100.00;99985.00;5089773;28;20028;-77
2023/01/15 11:10:24;;;;;;;6.80;1.42;;;;;;;5.49;100.00;100022.72;5072632;28;20090;-77
2023/01/15 11:21:20;;;;;;;9.13;1.50;;;;;;;5.61;100.00;100027.69;5071820;28;20117;-76
2023/01/15 11:23:47;;;;;;;4.28;1.00;;;;;;;5.81;100.00;100024.78;5072612;28;20055;-76
2023/01/15 11:26:20;;;;;;;3.55;1.30;;;;;;;6.00;99.57;100002.06;5072116;28;20021;-76
2023/01/15 11:28:46;;;;;;;4.32;1.05;;;;;;;6.18;99.55;100029.34;5072182;28;20096;-76
2023/01/15 11:31:14;;;;;;;3.75;1.00;;;;;;;6.32;100.00;100019.59;5072132;28;20115;-76
2023/01/15 11:33:43;;;;;;;3.55;1.00;;;;;;;6.23;97.65;99986.09;5072784;28;20024;-77
2023/01/15 11:36:22;;;;;;;2.97;0.90;;;;;;;6.24;98.46;100018.00;5071418;28;20033;-76
2023/01/15 11:38:48;;;;;;;5.95;1.30;;;;;;;6.15;100.00;100019.06;5064830;28;20051;-76
2023/01/15 11:52:37;;;;;;;7.80;1.25;;;;;;;6.13;98.38;100031.16;5072674;28;20446;-76
2023/01/15 11:55:11;;;;;;;3.90;1.00;;;;;;;6.08;97.50;100032.97;5071390;28;20043;-76
2023/01/15 11:57:37;;;;;;;6.50;1.10;;;;;;;6.05;99.04;100033.03;5072401;28;20034;-76
2023/01/15 12:00:04;;;;;;;4.28;1.08;;;;;;;6.23;99.72;100030.09;5072184;28;20025;-76
2023/01/15 12:05:25;;;;;;;8.50;1.20;;;;;;;6.33;96.20;100038.56;5061491;28;20039;-76
2023/01/15 12:07:54;;;;;;;6.28;1.65;;;;;;;6.16;96.05;100020.75;5071989;28;20020;-77
2023/01/15 12:13:29;;;;;;;5.15;1.38;;;;;;;6.02;96.45;100022.75;5071915;28;20139;-76
2023/01/15 12:16:06;;;;;;;4.35;1.20;;;;;;;5.90;98.74;100016.00;5072245;28;20032;-76
2023/01/15 12:18:49;;;;;;;7.82;1.40;;;;;;;5.95;100.00;100018.53;5071426;28;20020;-76
2023/01/15 12:21:55;;;;;;;7.63;1.20;;;;;;;6.05;97.61;100035.63;5071481;28;20538;-76
2023/01/15 12:24:46;;;;;;;8.35;1.20;;;;;;;5.91;100.00;100019.44;5055912;28;20020;-76
2023/01/15 12:27:36;;;;;;;3.85;1.15;;;;;;;5.83;99.25;100023.03;5071880;28;20070;-76
2023/01/15 12:30:25;;;;;;;5.03;1.05;;;;;;;5.87;99.40;100027.25;5071633;28;20029;-76
2023/01/15 12:33:13;;;;;;;4.93;1.38;;;;;;;5.87;97.27;100018.66;5031518;28;20044;-76
2023/01/15 12:35:59;;;;;;;4.78;1.40;;;;;;;5.80;97.32;100010.16;5060305;28;20048;-76
2023/01/15 12:38:46;;;;;;;5.38;1.42;;;;;;;5.78;98.67;100022.25;5070661;28;20016;-76